sensor_id;sensor_type;location;lat;lon;timestamp;pressure;altitude;pressure_sealevel;temperature;humidity
48636;BME280;34429;52.332;5.614;2023-02-18T00:02:09;102109.25;;;10.30;100.00
48636;BME280;34429;52.332;5.614;2023-02-18T00:04:38;102096.38;;;10.35;100.00
48636;BME280;34429;52.332;5.614;2023-02-18T00:07:06;102105.81;;;10.28;100.00
48636;BME280;34429;52.332;5.614;2023-02-18T00:09:35;102109.66;;;10.24;100.00
48636;BME280;34429;52.332;5.614;2023-02-18T00:12:05;102100.03;;;10.34;100.00
48636;BME280;34429;52.332;5.614;2023-02-18T00:14:33;102109.25;;;10.30;100.00
48636;BME280;34429;52.332;5.614;2023-02-18T00:17:04;102105.44;;;10.47;100.00
48636;BME280;34429;52.332;5.614;2023-02-18T00:19:33;102094.44;;;10.37;100.00
48636;BME280;34429;52.332;5.614;2023-02-18T00:22:01;102101.34;;;10.41;100.00
48636;BME280;34429;52.332;5.614;2023-02-18T00:24:29;102099.28;;;10.45;100.00
48636;BME280;34429;52.332;5.614;2023-02-18T00:26:58;102103.25;;;10.39;100.00
48636;BME280;34429;52.332;5.614;2023-02-18T00:29:26;102098.75;;;10.40;100.00
48636;BME280;34429;52.332;5.614;2023-02-18T00:31:54;102090.59;;;10.41;100.00
48636;BME280;34429;52.332;5.614;2023-02-18T00:34:25;102094.00;;;10.43;100.00
48636;BME280;34429;52.332;5.614;2023-02-18T00:36:55;102095.13;;;10.54;100.00
48636;BME280;34429;52.332;5.614;2023-02-18T00:39:23;102090.91;;;10.49;100.00
48636;BME280;34429;52.332;5.614;2023-02-18T00:41:51;102088.97;;;10.51;100.00
48636;BME280;34429;52.332;5.614;2023-02-18T00:44:20;102075.31;;;10.55;100.00
48636;BME280;34429;52.332;5.614;2023-02-18T00:46:48;102087.03;;;10.54;100.00
48636;BME280;34429;52.332;5.614;2023-02-18T00:49:17;102072.50;;;10.56;100.00
48636;BME280;34429;52.332;5.614;2023-02-18T00:51:48;102065.72;;;10.50;100.00
48636;BME280;34429;52.332;5.614;2023-02-18T00:54:16;102058.38;;;10.52;100.00
48636;BME280;34429;52.332;5.614;2023-02-18T00:56:45;102057.31;;;10.68;100.00
48636;BME280;34429;52.332;5.614;2023-02-18T00:59:13;102062.59;;;10.57;100.00
48636;BME280;34429;52.332;5.614;2023-02-18T01:01:41;102066.06;;;10.59;100.00
48636;BME280;34429;52.332;5.614;2023-02-18T01:04:10;102062.16;;;10.63;100.00
48636;BME280;34429;52.332;5.614;2023-02-18T01:06:38;102050.97;;;10.56;100.00
48636;BME280;34429;52.332;5.614;2023-02-18T01:09:09;102053.66;;;10.56;100.00
48636;BME280;34429;52.332;5.614;2023-02-18T01:11:38;102053.97;;;10.64;100.00
48636;BME280;34429;52.332;5.614;2023-02-18T01:14:06;102050.75;;;10.72;100.00
48636;BME280;34429;52.332;5.614;2023-02-18T01:16:34;102057.00;;;10.60;100.00
48636;BME280;34429;52.332;5.614;2023-02-18T01:19:02;102055.28;;;10.59;100.00
48636;BME280;34429;52.332;5.614;2023-02-18T01:21:31;102058.28;;;10.67;100.00
48636;BME280;34429;52.332;5.614;2023-02-18T01:23:59;102053.91;;;10.66;100.00
48636;BME280;34429;52.332;5.614;2023-02-18T01:26:30;102046.00;;;10.63;100.00
48636;BME280;34429;52.332;5.614;2023-02-18T01:28:58;102050.53;;;10.62;100.00
48636;BME280;34429;52.332;5.614;2023-02-18T01:31:27;102038.91;;;10.62;100.00
48636;BME280;34429;52.332;5.614;2023-02-18T01:33:55;102041.16;;;10.55;100.00
48636;BME280;34429;52.332;5.614;2023-02-18T01:36:23;102043.22;;;10.51;100.00
48636;BME280;34429;52.332;5.614;2023-02-18T01:38:52;102037.81;;;10.77;100.00
48636;BME280;34429;52.332;5.614;2023-02-18T01:41:20;102037.31;;;10.72;100.00
48636;BME280;34429;52.332;5.614;2023-02-18T01:44:13;102038.47;;;10.68;100.00
48636;BME280;34429;52.332;5.614;2023-02-18T01:46:42;102025.97;;;10.67;100.00
48636;BME280;34429;52.332;5.614;2023-02-18T01:49:14;102033.09;;;10.55;100.00
48636;BME280;34429;52.332;5.614;2023-02-18T01:51:46;102031.59;;;10.64;100.00
48636;BME280;34429;52.332;5.614;2023-02-18T01:54:21;102023.72;;;10.61;100.00
48636;BME280;34429;52.332;5.614;2023-02-18T01:56:55;102023.38;;;10.52;100.00
48636;BME280;34429;52.332;5.614;2023-02-18T01:59:32;102014.56;;;10.50;100.00
48636;BME280;34429;52.332;5.614;2023-02-18T02:02:02;102008.22;;;10.39;100.00
48636;BME280;34429;52.332;5.614;2023-02-18T02:04:30;102011.66;;;10.41;100.00
48636;BME280;34429;52.332;5.614;2023-02-18T02:07:00;102004.25;;;10.44;100.00
48636;BME280;34429;52.332;5.614;2023-02-18T02:09:31;101981.19;;;10.40;100.00
48636;BME280;34429;52.332;5.614;2023-02-18T02:12:20;101978.63;;;10.51;100.00
48636;BME280;34429;52.332;5.614;2023-02-18T02:15:00;101981.31;;;10.51;100.00
48636;BME280;34429;52.332;5.614;2023-02-18T02:17:37;101967.28;;;10.46;100.00
48636;BME280;34429;52.332;5.614;2023-02-18T02:20:44;101957.06;;;10.39;100.00
48636;BME280;34429;52.332;5.614;2023-02-18T02:23:56;101953.91;;;10.32;100.00
48636;BME280;34429;52.332;5.614;2023-02-18T02:26:57;101945.19;;;10.28;100.00
48636;BME280;34429;52.332;5.614;2023-02-18T02:32:45;101944.34;;;10.28;100.00
48636;BME280;34429;52.332;5.614;2023-02-18T02:35:22;101936.19;;;10.29;100.00
48636;BME280;34429;52.332;5.614;2023-02-18T02:37:55;101939.38;;;10.22;100.00
48636;BME280;34429;52.332;5.614;2023-02-18T02:40:33;101926.91;;;10.08;100.00
48636;BME280;34429;52.332;5.614;2023-02-18T02:43:07;101921.22;;;10.25;100.00
48636;BME280;34429;52.332;5.614;2023-02-18T02:45:47;101898.28;;;10.07;100.00
48636;BME280;34429;52.332;5.614;2023-02-18T02:48:27;101891.50;;;10.14;100.00
48636;BME280;34429;52.332;5.614;2023-02-18T02:51:05;101887.09;;;10.13;100.00
48636;BME280;34429;52.332;5.614;2023-02-18T02:53:36;101881.28;;;10.19;100.00
48636;BME280;34429;52.332;5.614;2023-02-18T02:56:11;101887.94;;;10.00;100.00
48636;BME280;34429;52.332;5.614;2023-02-18T02:58:41;101882.25;;;10.05;100.00
48636;BME280;34429;52.332;5.614;2023-02-18T03:01:33;101886.78;;;10.05;100.00
48636;BME280;34429;52.332;5.614;2023-02-18T03:04:16;101883.88;;;10.08;100.00
48636;BME280;34429;52.332;5.614;2023-02-18T03:07:17;101876.13;;;10.16;100.00
48636;BME280;34429;52.332;5.614;2023-02-18T03:10:12;101873.22;;;10.06;100.00
48636;BME280;34429;52.332;5.614;2023-02-18T03:12:49;101867.63;;;10.09;100.00
48636;BME280;34429;52.332;5.614;2023-02-18T03:15:27;101865.47;;;10.14;100.00
48636;BME280;34429;52.332;5.614;2023-02-18T03:18:01;101870.31;;;10.09;100.00
48636;BME280;34429;52.332;5.614;2023-02-18T03:20:37;101862.34;;;9.95;100.00
48636;BME280;34429;52.332;5.614;2023-02-18T03:23:14;101853.75;;;9.90;100.00
48636;BME280;34429;52.332;5.614;2023-02-18T03:25:44;101832.88;;;9.93;100.00
48636;BME280;34429;52.332;5.614;2023-02-18T03:28:16;101823.72;;;9.96;100.00
48636;BME280;34429;52.332;5.614;2023-02-18T03:30:48;101822.66;;;9.98;100.00
48636;BME280;34429;52.332;5.614;2023-02-18T03:33:20;101823.28;;;10.15;100.00
48636;BME280;34429;52.332;5.614;2023-02-18T03:35:53;101818.53;;;10.18;100.00
48636;BME280;34429;52.332;5.614;2023-02-18T03:38:28;101811.00;;;10.11;100.00
48636;BME280;34429;52.332;5.614;2023-02-18T03:40:59;101800.59;;;10.06;100.00
48636;BME280;34429;52.332;5.614;2023-02-18T03:43:28;101797.44;;;10.25;100.00
48636;BME280;34429;52.332;5.614;2023-02-18T03:45:56;101789.16;;;10.15;100.00
48636;BME280;34429;52.332;5.614;2023-02-18T03:48:28;101787.25;;;10.17;100.00
48636;BME280;34429;52.332;5.614;2023-02-18T03:50:56;101785.72;;;10.13;100.00
48636;BME280;34429;52.332;5.614;2023-02-18T03:53:29;101778.19;;;10.18;100.00
48636;BME280;34429;52.332;5.614;2023-02-18T03:55:58;101771.97;;;10.05;100.00
48636;BME280;34429;52.332;5.614;2023-02-18T03:58:26;101766.22;;;10.23;100.00
48636;BME280;34429;52.332;5.614;2023-02-18T04:00:55;101762.56;;;10.24;100.00
48636;BME280;34429;52.332;5.614;2023-02-18T04:03:23;101763.97;;;10.29;100.00
48636;BME280;34429;52.332;5.614;2023-02-18T04:05:51;101763.94;;;10.42;100.00
48636;BME280;34429;52.332;5.614;2023-02-18T04:08:20;101744.13;;;10.43;100.00
48636;BME280;34429;52.332;5.614;2023-02-18T04:10:51;101754.38;;;10.38;100.00
48636;BME280;34429;52.332;5.614;2023-02-18T04:13:19;101746.13;;;10.52;100.00
48636;BME280;34429;52.332;5.614;2023-02-18T04:15:48;101747.28;;;10.61;100.00
48636;BME280;34429;52.332;5.614;2023-02-18T04:18:17;101752.28;;;10.55;100.00
48636;BME280;34429;52.332;5.614;2023-02-18T04:20:46;101743.84;;;10.59;100.00
48636;BME280;34429;52.332;5.614;2023-02-18T04:23:17;101726.84;;;10.59;100.00
48636;BME280;34429;52.332;5.614;2023-02-18T04:25:45;101732.34;;;10.57;100.00
48636;BME280;34429;52.332;5.614;2023-02-18T04:28:19;101729.78;;;10.56;100.00
48636;BME280;34429;52.332;5.614;2023-02-18T04:30:47;101720.69;;;10.45;100.00
48636;BME280;34429;52.332;5.614;2023-02-18T04:33:15;101730.63;;;10.56;100.00
48636;BME280;34429;52.332;5.614;2023-02-18T04:35:44;101723.63;;;10.54;100.00
48636;BME280;34429;52.332;5.614;2023-02-18T04:38:13;101722.44;;;10.58;100.00
48636;BME280;34429;52.332;5.614;2023-02-18T04:40:41;101715.28;;;10.45;100.00
48636;BME280;34429;52.332;5.614;2023-02-18T04:43:09;101705.13;;;10.49;100.00
48636;BME280;34429;52.332;5.614;2023-02-18T04:45:40;101706.91;;;10.37;100.00
48636;BME280;34429;52.332;5.614;2023-02-18T04:48:23;101684.34;;;10.51;100.00
48636;BME280;34429;52.332;5.614;2023-02-18T04:50:52;101684.22;;;10.52;100.00
48636;BME280;34429;52.332;5.614;2023-02-18T04:53:20;101675.19;;;10.54;100.00
48636;BME280;34429;52.332;5.614;2023-02-18T04:55:49;101682.53;;;10.51;100.00
48636;BME280;34429;52.332;5.614;2023-02-18T04:58:20;101676.16;;;10.52;100.00
48636;BME280;34429;52.332;5.614;2023-02-18T05:00:49;101683.44;;;10.63;100.00
48636;BME280;34429;52.332;5.614;2023-02-18T05:03:18;101677.69;;;10.68;100.00
48636;BME280;34429;52.332;5.614;2023-02-18T05:05:49;101663.81;;;10.61;100.00
48636;BME280;34429;52.332;5.614;2023-02-18T05:08:17;101665.38;;;10.52;100.00
48636;BME280;34429;52.332;5.614;2023-02-18T05:10:48;101669.09;;;10.63;100.00
48636;BME280;34429;52.332;5.614;2023-02-18T05:13:16;101668.78;;;10.67;100.00
48636;BME280;34429;52.332;5.614;2023-02-18T05:15:45;101655.44;;;10.66;100.00
48636;BME280;34429;52.332;5.614;2023-02-18T05:18:13;101663.75;;;10.74;100.00
48636;BME280;34429;52.332;5.614;2023-02-18T05:20:43;101652.50;;;10.69;100.00
48636;BME280;34429;52.332;5.614;2023-02-18T05:23:13;101654.91;;;10.61;100.00
48636;BME280;34429;52.332;5.614;2023-02-18T05:25:44;101630.19;;;10.67;100.00
48636;BME280;34429;52.332;5.614;2023-02-18T05:28:13;101634.84;;;10.65;100.00
48636;BME280;34429;52.332;5.614;2023-02-18T05:30:41;101641.25;;;10.75;100.00
48636;BME280;34429;52.332;5.614;2023-02-18T05:33:09;101638.03;;;10.70;100.00
48636;BME280;34429;52.332;5.614;2023-02-18T05:35:38;101642.97;;;10.76;100.00
48636;BME280;34429;52.332;5.614;2023-02-18T05:38:06;101637.53;;;10.65;100.00
48636;BME280;34429;52.332;5.614;2023-02-18T05:40:37;101635.38;;;10.81;100.00
48636;BME280;34429;52.332;5.614;2023-02-18T05:43:06;101630.25;;;10.78;100.00
48636;BME280;34429;52.332;5.614;2023-02-18T05:45:34;101626.34;;;10.82;100.00
48636;BME280;34429;52.332;5.614;2023-02-18T05:48:03;101624.38;;;10.84;100.00
48636;BME280;34429;52.332;5.614;2023-02-18T05:50:32;101631.31;;;10.76;100.00
48636;BME280;34429;52.332;5.614;2023-02-18T05:53:00;101628.91;;;10.95;100.00
48636;BME280;34429;52.332;5.614;2023-02-18T05:55:29;101629.28;;;10.91;100.00
48636;BME280;34429;52.332;5.614;2023-02-18T05:58:00;101618.38;;;10.92;100.00
48636;BME280;34429;52.332;5.614;2023-02-18T06:00:28;101617.78;;;11.11;100.00
48636;BME280;34429;52.332;5.614;2023-02-18T06:02:57;101629.81;;;11.07;100.00
48636;BME280;34429;52.332;5.614;2023-02-18T06:05:25;101627.09;;;10.96;100.00
48636;BME280;34429;52.332;5.614;2023-02-18T06:07:53;101627.13;;;11.07;100.00
48636;BME280;34429;52.332;5.614;2023-02-18T06:10:22;101623.19;;;11.00;100.00
48636;BME280;34429;52.332;5.614;2023-02-18T06:12:50;101637.03;;;11.07;100.00
48636;BME280;34429;52.332;5.614;2023-02-18T06:15:21;101633.09;;;10.99;100.00
48636;BME280;34429;52.332;5.614;2023-02-18T06:17:49;101643.00;;;10.99;100.00
48636;BME280;34429;52.332;5.614;2023-02-18T06:20:18;101631.91;;;11.15;100.00
48636;BME280;34429;52.332;5.614;2023-02-18T06:22:46;101634.94;;;10.99;100.00
48636;BME280;34429;52.332;5.614;2023-02-18T06:25:15;101637.00;;;10.95;100.00
48636;BME280;34429;52.332;5.614;2023-02-18T06:27:43;101640.03;;;10.91;100.00
48636;BME280;34429;52.332;5.614;2023-02-18T06:30:12;101637.38;;;11.02;100.00
48636;BME280;34429;52.332;5.614;2023-02-18T06:32:43;101640.69;;;10.94;100.00
48636;BME280;34429;52.332;5.614;2023-02-18T06:35:11;101644.97;;;10.97;100.00
48636;BME280;34429;52.332;5.614;2023-02-18T06:37:39;101646.81;;;11.08;100.00
48636;BME280;34429;52.332;5.614;2023-02-18T06:40:09;101641.03;;;11.01;100.00
48636;BME280;34429;52.332;5.614;2023-02-18T06:42:37;101643.28;;;11.07;100.00
48636;BME280;34429;52.332;5.614;2023-02-18T06:45:06;101640.81;;;10.93;100.00
48636;BME280;34429;52.332;5.614;2023-02-18T06:47:34;101641.28;;;10.98;100.00
48636;BME280;34429;52.332;5.614;2023-02-18T06:50:06;101625.13;;;10.98;100.00
48636;BME280;34429;52.332;5.614;2023-02-18T06:52:35;101622.94;;;11.03;100.00
48636;BME280;34429;52.332;5.614;2023-02-18T06:55:04;101619.50;;;11.01;100.00
48636;BME280;34429;52.332;5.614;2023-02-18T06:57:34;101618.50;;;10.91;100.00
48636;BME280;34429;52.332;5.614;2023-02-18T07:00:03;101617.06;;;10.98;100.00
48636;BME280;34429;52.332;5.614;2023-02-18T07:02:31;101628.09;;;11.06;100.00
48636;BME280;34429;52.332;5.614;2023-02-18T07:05:00;101620.25;;;11.03;100.00
48636;BME280;34429;52.332;5.614;2023-02-18T07:07:31;101617.06;;;11.09;100.00
48636;BME280;34429;52.332;5.614;2023-02-18T07:09:59;101609.09;;;10.96;100.00
48636;BME280;34429;52.332;5.614;2023-02-18T07:12:28;101599.78;;;11.00;100.00
48636;BME280;34429;52.332;5.614;2023-02-18T07:14:56;101610.19;;;11.05;100.00
48636;BME280;34429;52.332;5.614;2023-02-18T07:17:24;101605.66;;;11.05;100.00
48636;BME280;34429;52.332;5.614;2023-02-18T07:19:53;101596.50;;;11.19;100.00
48636;BME280;34429;52.332;5.614;2023-02-18T07:22:22;101596.00;;;11.03;100.00
48636;BME280;34429;52.332;5.614;2023-02-18T07:24:53;101591.84;;;11.10;100.00
48636;BME280;34429;52.332;5.614;2023-02-18T07:27:22;101596.25;;;11.11;100.00
48636;BME280;34429;52.332;5.614;2023-02-18T07:29:50;101588.16;;;11.11;100.00
48636;BME280;34429;52.332;5.614;2023-02-18T07:32:18;101596.38;;;11.10;100.00
48636;BME280;34429;52.332;5.614;2023-02-18T07:34:47;101592.81;;;10.98;100.00
48636;BME280;34429;52.332;5.614;2023-02-18T07:37:15;101594.88;;;11.05;100.00
48636;BME280;34429;52.332;5.614;2023-02-18T07:39:44;101606.28;;;11.09;100.00
48636;BME280;34429;52.332;5.614;2023-02-18T07:42:15;101600.19;;;11.07;100.00
48636;BME280;34429;52.332;5.614;2023-02-18T07:44:43;101610.06;;;10.95;100.00
48636;BME280;34429;52.332;5.614;2023-02-18T07:47:13;101608.72;;;11.01;100.00
48636;BME280;34429;52.332;5.614;2023-02-18T07:49:44;101610.69;;;10.99;100.00
48636;BME280;34429;52.332;5.614;2023-02-18T07:52:12;101607.50;;;10.94;100.00
48636;BME280;34429;52.332;5.614;2023-02-18T07:54:41;101619.50;;;11.01;100.00
48636;BME280;34429;52.332;5.614;2023-02-18T07:57:18;101607.03;;;11.00;100.00
48636;BME280;34429;52.332;5.614;2023-02-18T07:59:46;101607.84;;;10.89;100.00
48636;BME280;34429;52.332;5.614;2023-02-18T08:02:18;101608.97;;;10.98;100.00
48636;BME280;34429;52.332;5.614;2023-02-18T08:04:47;101623.19;;;11.00;100.00
48636;BME280;34429;52.332;5.614;2023-02-18T08:07:16;101617.44;;;11.04;100.00
48636;BME280;34429;52.332;5.614;2023-02-18T08:09:45;101618.97;;;10.84;100.00
48636;BME280;34429;52.332;5.614;2023-02-18T08:12:18;101624.13;;;10.87;100.00
48636;BME280;34429;52.332;5.614;2023-02-18T08:14:47;101621.88;;;10.70;100.00
48636;BME280;34429;52.332;5.614;2023-02-18T08:17:15;101626.09;;;10.85;100.00
48636;BME280;34429;52.332;5.614;2023-02-18T08:19:47;101618.63;;;10.89;100.00
48636;BME280;34429;52.332;5.614;2023-02-18T08:22:17;101624.00;;;10.78;100.00
48636;BME280;34429;52.332;5.614;2023-02-18T08:24:46;101618.38;;;10.81;100.00
48636;BME280;34429;52.332;5.614;2023-02-18T08:27:17;101622.16;;;10.78;100.00
48636;BME280;34429;52.332;5.614;2023-02-18T08:29:45;101623.59;;;10.71;100.00
48636;BME280;34429;52.332;5.614;2023-02-18T08:32:14;101631.06;;;10.67;100.00
48636;BME280;34429;52.332;5.614;2023-02-18T08:34:42;101631.97;;;10.79;100.00
48636;BME280;34429;52.332;5.614;2023-02-18T08:37:10;101637.06;;;10.71;100.00
48636;BME280;34429;52.332;5.614;2023-02-18T08:39:39;101640.19;;;10.54;100.00
48636;BME280;34429;52.332;5.614;2023-02-18T08:42:07;101629.66;;;10.50;100.00
48636;BME280;34429;52.332;5.614;2023-02-18T08:44:38;101636.25;;;10.46;100.00
48636;BME280;34429;52.332;5.614;2023-02-18T08:47:09;101631.38;;;10.51;100.00
48636;BME280;34429;52.332;5.614;2023-02-18T08:49:37;101628.47;;;10.55;100.00
48636;BME280;34429;52.332;5.614;2023-02-18T08:52:06;101621.59;;;10.50;100.00
48636;BME280;34429;52.332;5.614;2023-02-18T08:54:34;101616.94;;;10.52;100.00
48636;BME280;34429;52.332;5.614;2023-02-18T08:57:03;101637.66;;;10.63;100.00
48636;BME280;34429;52.332;5.614;2023-02-18T08:59:31;101623.38;;;10.39;100.00
48636;BME280;34429;52.332;5.614;2023-02-18T09:02:02;101632.81;;;10.44;100.00
48636;BME280;34429;52.332;5.614;2023-02-18T09:04:31;101622.94;;;10.32;100.00
48636;BME280;34429;52.332;5.614;2023-02-18T09:06:59;101632.81;;;10.44;100.00
48636;BME280;34429;52.332;5.614;2023-02-18T09:09:27;101631.34;;;10.40;100.00
48636;BME280;34429;52.332;5.614;2023-02-18T09:11:56;101617.41;;;10.46;100.00
48636;BME280;34429;52.332;5.614;2023-02-18T09:14:24;101624.66;;;10.33;100.00
48636;BME280;34429;52.332;5.614;2023-02-18T09:16:55;101635.22;;;10.36;100.00
48636;BME280;34429;52.332;5.614;2023-02-18T09:19:26;101633.06;;;10.41;100.00
48636;BME280;34429;52.332;5.614;2023-02-18T09:21:55;101631.81;;;10.34;100.00
48636;BME280;34429;52.332;5.614;2023-02-18T09:24:23;101644.69;;;10.29;100.00
48636;BME280;34429;52.332;5.614;2023-02-18T09:26:52;101639.44;;;10.27;100.00
48636;BME280;34429;52.332;5.614;2023-02-18T09:29:20;101646.00;;;10.36;100.00
48636;BME280;34429;52.332;5.614;2023-02-18T09:31:48;101648.31;;;10.41;100.00
48636;BME280;34429;52.332;5.614;2023-02-18T09:34:21;101637.44;;;10.42;100.00
48636;BME280;34429;52.332;5.614;2023-02-18T09:36:52;101658.25;;;10.40;100.00
48636;BME280;34429;52.332;5.614;2023-02-18T09:39:21;101643.06;;;10.39;100.00
48636;BME280;34429;52.332;5.614;2023-02-18T09:41:51;101656.47;;;10.52;100.00
48636;BME280;34429;52.332;5.614;2023-02-18T09:44:22;101648.03;;;10.57;100.00
48636;BME280;34429;52.332;5.614;2023-02-18T09:46:54;101651.19;;;10.50;100.00
48636;BME280;34429;52.332;5.614;2023-02-18T09:49:28;101655.38;;;10.55;100.00
48636;BME280;34429;52.332;5.614;2023-02-18T09:52:05;101646.28;;;10.44;100.00
48636;BME280;34429;52.332;5.614;2023-02-18T09:54:34;101644.97;;;10.50;100.00
48636;BME280;34429;52.332;5.614;2023-02-18T09:57:04;101641.22;;;10.64;100.00
48636;BME280;34429;52.332;5.614;2023-02-18T09:59:34;101654.94;;;10.72;100.00
48636;BME280;34429;52.332;5.614;2023-02-18T10:02:02;101648.44;;;10.63;100.00
48636;BME280;34429;52.332;5.614;2023-02-18T10:04:38;101653.50;;;10.79;100.00
48636;BME280;34429;52.332;5.614;2023-02-18T10:07:17;101677.03;;;10.89;100.00
48636;BME280;34429;52.332;5.614;2023-02-18T10:09:47;101665.72;;;10.83;100.00
48636;BME280;34429;52.332;5.614;2023-02-18T10:12:19;101652.75;;;10.77;100.00
48636;BME280;34429;52.332;5.614;2023-02-18T10:14:50;101678.47;;;10.81;100.00
48636;BME280;34429;52.332;5.614;2023-02-18T10:17:21;101663.03;;;10.72;100.00
48636;BME280;34429;52.332;5.614;2023-02-18T10:19:52;101659.69;;;11.15;100.00
48636;BME280;34429;52.332;5.614;2023-02-18T10:22:25;101683.22;;;11.13;100.00
48636;BME280;34429;52.332;5.614;2023-02-18T10:24:56;101689.59;;;11.24;100.00
48636;BME280;34429;52.332;5.614;2023-02-18T10:27:29;101678.56;;;11.15;100.00
48636;BME280;34429;52.332;5.614;2023-02-18T10:30:01;101670.09;;;11.20;100.00
48636;BME280;34429;52.332;5.614;2023-02-18T10:32:37;101691.06;;;11.28;100.00
48636;BME280;34429;52.332;5.614;2023-02-18T10:35:16;101680.53;;;11.58;100.00
48636;BME280;34429;52.332;5.614;2023-02-18T10:37:56;101684.22;;;11.80;100.00
48636;BME280;34429;52.332;5.614;2023-02-18T10:40:34;101689.88;;;11.77;100.00
48636;BME280;34429;52.332;5.614;2023-02-18T10:43:11;101688.88;;;11.78;100.00
48636;BME280;34429;52.332;5.614;2023-02-18T10:45:48;101695.63;;;11.95;100.00
48636;BME280;34429;52.332;5.614;2023-02-18T10:48:35;101699.56;;;11.80;100.00
48636;BME280;34429;52.332;5.614;2023-02-18T10:51:14;101694.53;;;11.75;100.00
48636;BME280;34429;52.332;5.614;2023-02-18T10:53:48;101680.53;;;11.70;100.00
48636;BME280;34429;52.332;5.614;2023-02-18T10:56:39;101679.56;;;11.71;100.00
48636;BME280;34429;52.332;5.614;2023-02-18T10:59:13;101673.81;;;11.87;100.00
48636;BME280;34429;52.332;5.614;2023-02-18T11:01:53;101685.31;;;11.78;100.00
48636;BME280;34429;52.332;5.614;2023-02-18T11:04:34;101687.88;;;11.90;100.00
48636;BME280;34429;52.332;5.614;2023-02-18T11:07:05;101700.78;;;11.98;100.00
48636;BME280;34429;52.332;5.614;2023-02-18T11:09:40;101698.19;;;12.08;100.00
48636;BME280;34429;52.332;5.614;2023-02-18T11:12:16;101694.53;;;12.09;100.00
48636;BME280;34429;52.332;5.614;2023-02-18T11:14:48;101695.94;;;12.24;100.00
48636;BME280;34429;52.332;5.614;2023-02-18T11:17:20;101696.47;;;12.07;100.00
48636;BME280;34429;52.332;5.614;2023-02-18T11:19:56;101687.53;;;12.18;100.00
48636;BME280;34429;52.332;5.614;2023-02-18T11:22:29;101694.25;;;12.23;100.00
48636;BME280;34429;52.332;5.614;2023-02-18T11:25:01;101699.94;;;11.98;100.00
48636;BME280;34429;52.332;5.614;2023-02-18T11:27:37;101696.47;;;12.07;100.00
48636;BME280;34429;52.332;5.614;2023-02-18T11:30:18;101688.00;;;12.12;100.00
48636;BME280;34429;52.332;5.614;2023-02-18T11:32:48;101697.34;;;11.96;100.00
48636;BME280;34429;52.332;5.614;2023-02-18T11:35:18;101690.88;;;11.99;100.00
48636;BME280;34429;52.332;5.614;2023-02-18T11:37:48;101696.72;;;11.92;100.00
48636;BME280;34429;52.332;5.614;2023-02-18T11:40:26;101701.38;;;11.90;100.00
48636;BME280;34429;52.332;5.614;2023-02-18T11:43:03;101702.59;;;11.86;100.00
48636;BME280;34429;52.332;5.614;2023-02-18T11:45:33;101697.47;;;11.95;100.00
48636;BME280;34429;52.332;5.614;2023-02-18T11:48:06;101706.41;;;12.06;100.00
48636;BME280;34429;52.332;5.614;2023-02-18T11:50:35;101706.78;;;12.02;100.00
48636;BME280;34429;52.332;5.614;2023-02-18T11:53:25;101707.00;;;12.21;100.00
48636;BME280;34429;52.332;5.614;2023-02-18T11:55:59;101697.41;;;12.29;100.00
48636;BME280;34429;52.332;5.614;2023-02-18T11:58:34;101707.25;;;12.18;100.00
48636;BME280;34429;52.332;5.614;2023-02-18T12:01:05;101698.22;;;12.52;100.00
48636;BME280;34429;52.332;5.614;2023-02-18T12:03:43;101706.44;;;12.50;100.00
48636;BME280;34429;52.332;5.614;2023-02-18T12:06:17;101705.50;;;12.29;100.00
48636;BME280;34429;52.332;5.614;2023-02-18T12:08:50;101703.25;;;12.45;100.00
48636;BME280;34429;52.332;5.614;2023-02-18T12:11:27;101704.00;;;12.47;100.00
48636;BME280;34429;52.332;5.614;2023-02-18T12:13:59;101685.44;;;12.54;100.00
48636;BME280;34429;52.332;5.614;2023-02-18T12:16:33;101685.78;;;12.28;100.00
48636;BME280;34429;52.332;5.614;2023-02-18T12:19:14;101695.22;;;12.34;100.00
48636;BME280;34429;52.332;5.614;2023-02-18T12:21:55;101695.69;;;12.27;100.00
48636;BME280;34429;52.332;5.614;2023-02-18T12:24:40;101698.38;;;12.39;100.00
48636;BME280;34429;52.332;5.614;2023-02-18T12:27:22;101696.38;;;12.41;100.00
48636;BME280;34429;52.332;5.614;2023-02-18T12:30:07;101692.50;;;12.34;100.00
48636;BME280;34429;52.332;5.614;2023-02-18T12:32:46;101689.31;;;12.29;100.00
48636;BME280;34429;52.332;5.614;2023-02-18T12:35:42;101680.06;;;12.42;100.00
48636;BME280;34429;52.332;5.614;2023-02-18T12:38:37;101692.13;;;12.71;100.00
48636;BME280;34429;52.332;5.614;2023-02-18T12:41:20;101699.78;;;12.54;100.00
48636;BME280;34429;52.332;5.614;2023-02-18T12:44:03;101684.16;;;12.69;100.00
48636;BME280;34429;52.332;5.614;2023-02-18T12:46:44;101689.97;;;12.53;100.00
48636;BME280;34429;52.332;5.614;2023-02-18T12:49:38;101693.38;;;12.67;100.00
48636;BME280;34429;52.332;5.614;2023-02-18T12:52:18;101698.03;;;12.65;100.00
48636;BME280;34429;52.332;5.614;2023-02-18T12:55:03;101699.22;;;12.72;100.00
48636;BME280;34429;52.332;5.614;2023-02-18T12:57:41;101700.63;;;12.87;100.00
48636;BME280;34429;52.332;5.614;2023-02-18T13:00:34;101699.41;;;12.91;100.00
48636;BME280;34429;52.332;5.614;2023-02-18T13:06:22;101703.34;;;12.87;100.00
48636;BME280;34429;52.332;5.614;2023-02-18T13:09:02;101705.56;;;12.82;100.00
48636;BME280;34429;52.332;5.614;2023-02-18T13:11:40;101709.03;;;12.73;100.00
48636;BME280;34429;52.332;5.614;2023-02-18T13:14:13;101702.94;;;12.92;100.00